Time;durP1;ratioP1;P1;durP2;ratioP2;P2;SDS_P1;SDS_P2;PMS_P1;PMS_P2;Temp;Humidity;BMP_temperature;BMP_pressure;BME280_temperature;BME280_humidity;BME280_pressure;Samples;Min_cycle;Max_cycle;Signal;HPM_P1;HPM_P2
2023/05/03 00:00:01;;;;;;;14.95;4.55;;;4.50;99.90;;;;;;4988240;28;20511;-67
2023/05/03 00:02:27;;;;;;;4.85;4.32;;;4.50;99.90;;;;;;4984812;28;20092;-67
2023/05/03 00:04:54;;;;;;;12.93;3.97;;;4.40;99.90;;;;;;4987345;28;20046;-67
2023/05/03 00:07:21;;;;;;;8.48;3.85;;;4.50;99.90;;;;;;4985957;28;20088;-67
2023/05/03 00:09:48;;;;;;;7.68;5.80;;;4.40;99.90;;;;;;4989886;28;20054;-67
2023/05/03 00:12:14;;;;;;;6.72;4.38;;;4.50;99.90;;;;;;4980674;28;20514;-67
2023/05/03 00:14:40;;;;;;;7.03;3.70;;;4.40;99.90;;;;;;4991271;28;20073;-67
2023/05/03 00:17:05;;;;;;;5.50;3.50;;;4.50;99.90;;;;;;4991753;28;20053;-67
2023/05/03 00:19:32;;;;;;;7.30;5.57;;;4.50;99.90;;;;;;4982442;28;20050;-66
2023/05/03 00:21:58;;;;;;;8.98;3.55;;;4.50;99.90;;;;;;4991383;28;20046;-67
2023/05/03 00:24:24;;;;;;;8.18;4.55;;;4.50;99.90;;;;;;4977615;28;20047;-67
2023/05/03 00:26:50;;;;;;;7.25;4.57;;;4.50;99.90;;;;;;4989513;28;20061;-67
2023/05/03 00:29:17;;;;;;;6.68;5.10;;;4.60;99.90;;;;;;4973104;28;20046;-67
2023/05/03 00:31:44;;;;;;;7.00;3.97;;;4.60;99.90;;;;;;4975460;28;20385;-67
2023/05/03 00:34:09;;;;;;;6.93;5.88;;;4.60;99.90;;;;;;4981719;28;20325;-67
2023/05/03 00:36:35;;;;;;;18.25;5.22;;;4.60;99.90;;;;;;4984553;28;20495;-67
2023/05/03 00:39:00;;;;;;;8.45;6.00;;;4.70;99.90;;;;;;4982498;28;20081;-67
2023/05/03 00:41:26;;;;;;;6.22;5.43;;;4.70;99.90;;;;;;4977756;28;20050;-67
2023/05/03 00:43:52;;;;;;;6.43;4.85;;;4.70;99.90;;;;;;4991460;28;20052;-67
2023/05/03 00:46:17;;;;;;;7.47;4.60;;;4.70;99.90;;;;;;4990525;28;20046;-67
2023/05/03 00:48:45;;;;;;;8.95;5.28;;;4.70;99.90;;;;;;4990499;28;20046;-67
2023/05/03 00:51:13;;;;;;;12.40;5.18;;;4.80;99.90;;;;;;4988797;28;20050;-67
2023/05/03 00:53:40;;;;;;;11.70;5.63;;;4.80;99.90;;;;;;4991130;28;20065;-67
2023/05/03 00:56:06;;;;;;;7.97;4.97;;;4.80;99.90;;;;;;4984607;28;20169;-67
2023/05/03 00:58:33;;;;;;;9.35;4.60;;;4.80;99.90;;;;;;4988758;28;20129;-67
2023/05/03 01:01:01;;;;;;;12.00;6.57;;;4.80;99.90;;;;;;4989787;28;20049;-67
2023/05/03 01:03:28;;;;;;;9.63;5.97;;;4.80;99.90;;;;;;4991219;28;20047;-67
2023/05/03 01:06:22;;;;;;;7.70;5.00;;;4.70;99.90;;;;;;4990559;28;20045;-67
2023/05/03 01:09:01;;;;;;;6.35;5.30;;;4.70;99.90;;;;;;4955313;28;20061;-67
2023/05/03 01:11:40;;;;;;;6.13;5.53;;;4.70;99.90;;;;;;4987280;28;20054;-67
2023/05/03 01:14:24;;;;;;;4.85;4.20;;;4.70;99.90;;;;;;4978968;28;20125;-67
2023/05/03 01:17:01;;;;;;;8.85;5.50;;;4.80;99.90;;;;;;4981483;28;20112;-67
2023/05/03 01:19:44;;;;;;;9.30;5.32;;;4.80;99.90;;;;;;4989735;28;20404;-67
2023/05/03 01:22:28;;;;;;;7.75;4.97;;;4.90;99.90;;;;;;4988303;28;20097;-67
2023/05/03 01:25:06;;;;;;;8.43;5.80;;;4.90;99.90;;;;;;4990646;28;20050;-67
2023/05/03 01:27:32;;;;;;;21.42;5.63;;;4.90;99.90;;;;;;4980660;28;20062;-67
2023/05/03 01:29:58;;;;;;;5.82;4.90;;;4.90;99.90;;;;;;4984173;28;20050;-67
2023/05/03 01:32:33;;;;;;;10.60;5.43;;;4.90;99.90;;;;;;4985986;28;20692;-67
2023/05/03 01:35:19;;;;;;;8.23;5.10;;;5.00;99.90;;;;;;4975930;28;20055;-67
2023/05/03 01:37:46;;;;;;;7.10;5.88;;;5.00;99.90;;;;;;4977314;28;20101;-67
2023/05/03 01:40:18;;;;;;;9.43;5.68;;;5.00;99.90;;;;;;4985713;28;20053;-67
2023/05/03 01:42:46;;;;;;;8.85;5.22;;;5.00;99.90;;;;;;4986055;28;20039;-67
2023/05/03 01:45:12;;;;;;;8.77;5.53;;;5.00;99.90;;;;;;4986340;28;20050;-67
2023/05/03 01:47:38;;;;;;;14.98;7.10;;;5.10;99.90;;;;;;4989504;28;20046;-67
2023/05/03 01:50:03;;;;;;;10.30;5.50;;;5.10;99.90;;;;;;4979516;28;20050;-67
2023/05/03 01:52:29;;;;;;;6.10;5.25;;;5.10;99.90;;;;;;4985868;28;20042;-67
2023/05/03 01:54:55;;;;;;;7.72;5.38;;;5.10;99.90;;;;;;4990164;28;20039;-67
2023/05/03 01:57:21;;;;;;;8.40;5.97;;;5.10;99.90;;;;;;4989859;28;20050;-67
2023/05/03 01:59:47;;;;;;;6.43;5.18;;;5.20;99.90;;;;;;4988777;28;20053;-67
2023/05/03 02:02:14;;;;;;;7.30;6.07;;;5.20;99.90;;;;;;4990348;28;20088;-67
2023/05/03 02:04:39;;;;;;;5.85;5.22;;;5.20;99.90;;;;;;4985453;28;20480;-67
2023/05/03 02:07:05;;;;;;;15.10;5.97;;;5.20;99.90;;;;;;4986859;28;20121;-67
2023/05/03 02:09:31;;;;;;;6.22;5.63;;;5.20;99.90;;;;;;4986047;28;20042;-67
2023/05/03 02:11:56;;;;;;;6.10;4.85;;;5.20;99.90;;;;;;4989398;28;20414;-67
2023/05/03 02:14:22;;;;;;;8.90;5.78;;;5.30;99.90;;;;;;4986127;28;20088;-67
2023/05/03 02:16:48;;;;;;;14.93;5.82;;;5.30;99.90;;;;;;4980806;28;20122;-67
2023/05/03 02:19:14;;;;;;;9.00;5.70;;;5.30;99.90;;;;;;4987427;28;20058;-67
2023/05/03 02:21:41;;;;;;;10.52;6.47;;;5.30;99.90;;;;;;4985575;28;20495;-67
2023/05/03 02:24:07;;;;;;;7.90;5.50;;;5.30;99.90;;;;;;4986429;28;20046;-67
2023/05/03 02:26:33;;;;;;;7.35;6.45;;;5.30;99.90;;;;;;4989091;28;20145;-67
2023/05/03 02:28:59;;;;;;;8.88;5.60;;;5.30;99.90;;;;;;4988535;28;20479;-67
2023/05/03 02:31:25;;;;;;;10.43;5.85;;;5.40;99.90;;;;;;4987260;28;20182;-67
2023/05/03 02:33:51;;;;;;;9.15;6.35;;;5.30;99.90;;;;;;4987931;28;20222;-67
2023/05/03 02:36:17;;;;;;;12.60;7.00;;;5.30;99.90;;;;;;4989061;28;20547;-67
2023/05/03 02:38:43;;;;;;;11.15;7.63;;;5.30;99.90;;;;;;4989214;28;20049;-67
2023/05/03 02:41:08;;;;;;;10.20;6.82;;;5.30;99.90;;;;;;4981923;28;20045;-67
2023/05/03 02:43:34;;;;;;;6.47;5.88;;;5.30;99.90;;;;;;4988868;28;20042;-67
2023/05/03 02:46:00;;;;;;;8.63;5.57;;;5.30;99.90;;;;;;4988712;28;20046;-67
2023/05/03 02:48:26;;;;;;;9.30;6.05;;;5.30;99.90;;;;;;4983640;28;20770;-67
2023/05/03 02:50:53;;;;;;;13.90;7.57;;;5.30;99.90;;;;;;4983387;28;20053;-67
2023/05/03 02:53:19;;;;;;;9.68;6.38;;;5.30;99.90;;;;;;4987927;28;20053;-67
2023/05/03 02:55:45;;;;;;;11.00;7.65;;;5.30;99.90;;;;;;4986240;28;20042;-67
2023/05/03 02:58:11;;;;;;;12.95;7.82;;;5.30;99.90;;;;;;4979011;28;20125;-67
2023/05/03 03:00:36;;;;;;;12.02;7.72;;;5.30;99.90;;;;;;4988072;28;20042;-67
2023/05/03 03:03:02;;;;;;;7.88;6.43;;;5.30;99.90;;;;;;4988959;28;20727;-67
2023/05/03 03:05:29;;;;;;;10.35;6.93;;;5.30;99.90;;;;;;4987101;28;20059;-67
2023/05/03 03:07:54;;;;;;;9.23;7.38;;;5.30;99.90;;;;;;4982444;28;20057;-67
2023/05/03 03:10:20;;;;;;;8.55;5.65;;;5.30;99.90;;;;;;4988910;28;20046;-67
2023/05/03 03:12:46;;;;;;;8.98;7.13;;;5.30;99.90;;;;;;4988301;28;20042;-67
2023/05/03 03:15:12;;;;;;;11.50;6.95;;;5.30;99.90;;;;;;4981939;28;20459;-67
2023/05/03 03:17:38;;;;;;;10.98;6.40;;;5.30;99.90;;;;;;4981076;28;20043;-67
2023/05/03 03:20:11;;;;;;;9.63;6.05;;;5.40;99.90;;;;;;4989120;28;20054;-67
2023/05/03 03:22:37;;;;;;;11.50;7.90;;;5.40;99.90;;;;;;4985955;28;20058;-67
2023/05/03 03:25:05;;;;;;;9.98;7.13;;;5.40;99.90;;;;;;4988775;28;20060;-67
2023/05/03 03:27:31;;;;;;;8.07;6.57;;;5.30;99.90;;;;;;4987064;28;20078;-67
2023/05/03 03:29:57;;;;;;;16.75;7.90;;;5.30;99.90;;;;;;4986662;28;20085;-67
2023/05/03 03:32:23;;;;;;;12.63;7.30;;;5.30;99.90;;;;;;4986136;28;20495;-67
2023/05/03 03:34:50;;;;;;;12.55;6.88;;;5.30;99.90;;;;;;4988354;28;20460;-67
2023/05/03 03:37:16;;;;;;;10.65;7.50;;;5.30;99.90;;;;;;4986415;28;20054;-67
2023/05/03 03:39:42;;;;;;;10.10;6.75;;;5.30;99.90;;;;;;4989074;28;20042;-67
2023/05/03 03:42:14;;;;;;;7.32;6.28;;;5.30;99.90;;;;;;4992057;28;20045;-67
2023/05/03 03:44:39;;;;;;;11.60;7.13;;;5.30;99.90;;;;;;4988622;28;20057;-67
2023/05/03 03:47:05;;;;;;;7.80;6.53;;;5.30;99.90;;;;;;4992644;28;20042;-67
2023/05/03 03:49:31;;;;;;;9.98;6.55;;;5.20;99.90;;;;;;4987373;28;20091;-67
2023/05/03 03:51:57;;;;;;;8.90;6.30;;;5.20;99.90;;;;;;4992123;28;20085;-67
2023/05/03 03:54:22;;;;;;;12.00;7.78;;;5.20;99.90;;;;;;4992520;28;20038;-66
2023/05/03 03:56:49;;;;;;;10.05;7.05;;;5.20;99.90;;;;;;4989631;28;20042;-67
2023/05/03 03:59:15;;;;;;;8.00;6.45;;;5.10;99.90;;;;;;4986454;28;20054;-67
2023/05/03 04:01:41;;;;;;;7.45;6.30;;;5.10;99.90;;;;;;4989068;28;20503;-67
2023/05/03 04:04:06;;;;;;;7.72;6.10;;;5.10;99.90;;;;;;4985441;28;20134;-67
2023/05/03 04:06:32;;;;;;;8.02;7.05;;;5.10;99.90;;;;;;4988574;28;20073;-67
2023/05/03 04:08:58;;;;;;;7.78;6.97;;;5.10;99.90;;;;;;4983413;28;20046;-67
2023/05/03 04:11:32;;;;;;;12.05;6.72;;;5.10;99.90;;;;;;4986127;28;20042;-66
2023/05/03 04:13:57;;;;;;;9.88;7.38;;;5.10;99.90;;;;;;4984572;28;20105;-66
2023/05/03 04:16:23;;;;;;;9.15;6.43;;;5.20;99.90;;;;;;4986954;28;20043;-67
2023/05/03 04:18:49;;;;;;;9.82;7.38;;;5.30;99.90;;;;;;4991664;28;20034;-67
2023/05/03 04:21:14;;;;;;;10.32;7.10;;;5.30;99.90;;;;;;4987497;28;20046;-67
2023/05/03 04:23:40;;;;;;;8.32;7.57;;;5.30;99.90;;;;;;4988296;28;20093;-66
2023/05/03 04:26:09;;;;;;;10.27;6.97;;;5.30;99.90;;;;;;4991728;28;20043;-66
2023/05/03 04:28:34;;;;;;;20.10;6.72;;;5.30;99.90;;;;;;4987757;28;20519;-67
2023/05/03 04:31:02;;;;;;;11.93;6.22;;;5.30;99.90;;;;;;4988643;28;20078;-66
2023/05/03 04:33:29;;;;;;;7.50;6.80;;;5.30;99.90;;;;;;4988915;28;20108;-67
2023/05/03 04:35:54;;;;;;;11.20;7.97;;;5.30;99.90;;;;;;4990958;28;20137;-67
2023/05/03 04:38:21;;;;;;;8.90;6.80;;;5.40;99.90;;;;;;4990024;28;20129;-67
2023/05/03 04:40:46;;;;;;;11.15;6.80;;;5.40;99.90;;;;;;4988442;28;20101;-67
2023/05/03 04:43:12;;;;;;;15.20;8.00;;;5.40;99.90;;;;;;4986855;28;20042;-66
2023/05/03 04:45:38;;;;;;;19.55;7.93;;;5.50;99.90;;;;;;4982598;28;20050;-67
2023/05/03 04:48:04;;;;;;;11.05;7.50;;;5.50;99.90;;;;;;4988456;28;20065;-67
2023/05/03 04:50:31;;;;;;;18.60;7.55;;;5.60;99.90;;;;;;4991058;28;20042;-67
2023/05/03 04:52:57;;;;;;;13.10;8.05;;;5.60;99.90;;;;;;4991070;28;20054;-67
2023/05/03 04:55:22;;;;;;;7.50;6.35;;;5.60;99.90;;;;;;4986398;28;20057;-67
2023/05/03 04:57:49;;;;;;;11.20;6.63;;;5.70;99.90;;;;;;4983135;28;20611;-67
2023/05/03 05:00:15;;;;;;;8.10;7.22;;;5.70;99.90;;;;;;4980964;28;20058;-67
2023/05/03 05:02:41;;;;;;;15.00;6.75;;;5.80;99.90;;;;;;4982944;28;20142;-67
2023/05/03 05:05:08;;;;;;;8.98;6.25;;;5.80;99.90;;;;;;4987224;28;20046;-66
2023/05/03 05:07:34;;;;;;;7.55;6.28;;;5.90;99.90;;;;;;4989735;28;20074;-66
2023/05/03 05:10:01;;;;;;;10.98;7.40;;;5.90;99.90;;;;;;4982950;28;20409;-67
2023/05/03 05:12:28;;;;;;;10.70;6.63;;;6.00;99.90;;;;;;4987595;28;20054;-67
2023/05/03 05:14:53;;;;;;;14.02;7.32;;;6.00;99.90;;;;;;4981885;28;20492;-67
2023/05/03 05:17:20;;;;;;;9.02;7.53;;;6.00;99.90;;;;;;4984875;28;20045;-66
2023/05/03 05:19:46;;;;;;;13.38;6.68;;;6.10;99.90;;;;;;4982450;28;20054;-67
2023/05/03 05:22:11;;;;;;;12.15;7.20;;;6.10;99.90;;;;;;4985735;28;20038;-67
2023/05/03 05:24:37;;;;;;;9.88;7.47;;;6.20;99.90;;;;;;4985549;28;20121;-67
2023/05/03 05:27:03;;;;;;;12.63;8.40;;;6.30;99.90;;;;;;4986519;28;20913;-67
2023/05/03 05:29:29;;;;;;;9.70;7.57;;;6.30;99.90;;;;;;4979583;28;20130;-67
2023/05/03 05:31:55;;;;;;;9.55;7.97;;;6.40;99.90;;;;;;4986206;28;20059;-67
2023/05/03 05:34:20;;;;;;;12.07;9.00;;;6.40;99.90;;;;;;4986826;28;20104;-67
2023/05/03 05:36:46;;;;;;;13.25;8.98;;;6.50;99.90;;;;;;4988034;28;20046;-67
2023/05/03 05:39:12;;;;;;;9.48;6.78;;;6.60;99.90;;;;;;4989350;28;20065;-67
2023/05/03 05:41:38;;;;;;;9.85;7.10;;;6.60;99.90;;;;;;4985156;28;20411;-67
2023/05/03 05:44:05;;;;;;;14.38;7.28;;;6.70;99.90;;;;;;4988236;28;20046;-67
2023/05/03 05:46:31;;;;;;;7.57;6.05;;;6.70;99.90;;;;;;4981578;28;20073;-67
2023/05/03 05:48:57;;;;;;;6.45;5.38;;;6.80;99.90;;;;;;4982751;28;20487;-66
2023/05/03 05:51:22;;;;;;;7.88;5.43;;;6.90;99.90;;;;;;4978657;28;20046;-67
2023/05/03 05:53:48;;;;;;;8.80;6.22;;;7.00;99.90;;;;;;4988890;28;20046;-67
2023/05/03 05:56:14;;;;;;;12.88;7.05;;;7.10;99.90;;;;;;4988074;28;20419;-67
2023/05/03 05:58:40;;;;;;;8.95;6.00;;;7.20;99.90;;;;;;4982319;28;20434;-67
2023/05/03 06:01:06;;;;;;;5.93;5.43;;;7.30;99.90;;;;;;4986367;28;20458;-67
2023/05/03 06:03:32;;;;;;;8.82;6.47;;;7.40;99.90;;;;;;4983755;28;20046;-67
2023/05/03 06:05:58;;;;;;;10.32;6.00;;;7.50;99.90;;;;;;4986983;28;20057;-67
2023/05/03 06:08:24;;;;;;;10.73;6.18;;;7.50;99.90;;;;;;4989486;28;20062;-67
2023/05/03 06:10:51;;;;;;;10.30;6.03;;;7.60;99.90;;;;;;4985351;28;20050;-67
2023/05/03 06:13:17;;;;;;;9.55;6.40;;;7.70;99.90;;;;;;4988854;28;20507;-67
2023/05/03 06:15:43;;;;;;;6.88;6.18;;;7.70;99.90;;;;;;4982742;28;20074;-67
2023/05/03 06:18:09;;;;;;;9.77;6.90;;;7.80;99.90;;;;;;4988303;28;20563;-66
2023/05/03 06:20:34;;;;;;;12.50;6.75;;;7.80;99.90;;;;;;4980890;28;20047;-67
2023/05/03 06:23:00;;;;;;;6.90;6.18;;;7.80;99.90;;;;;;4978648;28;20062;-67
2023/05/03 06:25:26;;;;;;;9.15;6.47;;;7.90;99.90;;;;;;4982586;28;20034;-67
2023/05/03 06:27:51;;;;;;;9.02;7.38;;;7.90;99.90;;;;;;4989189;28;20042;-67
2023/05/03 06:30:17;;;;;;;10.80;6.47;;;8.00;99.90;;;;;;4988722;28;20345;-67
2023/05/03 06:32:45;;;;;;;11.00;6.53;;;8.10;99.90;;;;;;4989232;28;20507;-67
2023/05/03 06:35:11;;;;;;;6.35;5.57;;;8.20;99.90;;;;;;4986118;28;20577;-67
2023/05/03 06:37:37;;;;;;;7.85;6.00;;;8.20;99.90;;;;;;4978467;28;20103;-67
2023/05/03 06:40:04;;;;;;;13.05;6.57;;;8.30;99.90;;;;;;4973766;28;20412;-66
2023/05/03 06:42:29;;;;;;;10.23;5.90;;;8.40;99.90;;;;;;4986968;28;20042;-66
2023/05/03 06:44:55;;;;;;;9.52;6.38;;;8.40;99.90;;;;;;4986188;28;20636;-67
2023/05/03 06:47:21;;;;;;;11.57;7.18;;;8.40;99.90;;;;;;4988988;28;20122;-67
2023/05/03 06:49:47;;;;;;;8.68;6.10;;;8.60;99.90;;;;;;4988500;28;20050;-67
2023/05/03 06:52:13;;;;;;;7.13;5.50;;;8.50;99.90;;;;;;4987183;28;20054;-67
2023/05/03 06:54:39;;;;;;;8.98;6.15;;;8.60;99.90;;;;;;4988959;28;20034;-67
2023/05/03 06:57:06;;;;;;;6.72;5.80;;;8.60;99.90;;;;;;4978996;28;20058;-67
2023/05/03 06:59:32;;;;;;;11.20;5.80;;;8.60;99.90;;;;;;4986410;28;20614;-67
2023/05/03 07:01:57;;;;;;;8.23;5.47;;;8.60;99.90;;;;;;4983833;28;20050;-67
2023/05/03 07:04:23;;;;;;;16.80;6.22;;;8.60;99.90;;;;;;4998578;28;20042;-67
2023/05/03 07:06:49;;;;;;;7.68;6.13;;;8.60;99.90;;;;;;4988643;28;20399;-66
2023/05/03 07:09:16;;;;;;;14.73;5.65;;;8.60;99.90;;;;;;4988612;28;20061;-66
2023/05/03 07:11:48;;;;;;;8.40;6.38;;;8.60;99.90;;;;;;4993719;28;20085;-67
2023/05/03 07:14:14;;;;;;;9.27;7.03;;;8.70;99.90;;;;;;4981808;28;20499;-67
2023/05/03 07:16:40;;;;;;;7.35;6.65;;;8.70;99.90;;;;;;4987897;28;20034;-67
2023/05/03 07:19:06;;;;;;;13.77;6.93;;;8.80;99.90;;;;;;4989304;28;20050;-66
2023/05/03 07:21:32;;;;;;;10.65;7.18;;;8.90;99.90;;;;;;4986406;28;20526;-67
2023/05/03 07:23:58;;;;;;;6.90;6.00;;;8.90;99.90;;;;;;4985933;28;20030;-67
2023/05/03 07:26:25;;;;;;;8.68;6.40;;;8.90;99.90;;;;;;4979894;28;20133;-67
2023/05/03 07:28:51;;;;;;;6.82;6.20;;;8.90;99.90;;;;;;4988981;28;20060;-67
2023/05/03 07:31:17;;;;;;;8.63;6.63;;;8.90;99.90;;;;;;4988166;28;20061;-67
2023/05/03 07:33:43;;;;;;;8.35;5.47;;;8.90;99.90;;;;;;4988804;28;20177;-67
2023/05/03 07:36:09;;;;;;;12.75;7.05;;;9.00;99.90;;;;;;4984034;28;20495;-67
2023/05/03 07:38:34;;;;;;;7.20;6.53;;;9.00;99.90;;;;;;4989558;28;20057;-66
2023/05/03 07:41:00;;;;;;;11.23;6.00;;;9.10;99.90;;;;;;4983862;28;20598;-67
2023/05/03 07:43:26;;;;;;;9.27;7.32;;;9.20;99.90;;;;;;4988712;28;20499;-67
2023/05/03 07:45:51;;;;;;;7.35;6.65;;;9.20;99.90;;;;;;4988686;28;20615;-67
2023/05/03 07:48:17;;;;;;;11.52;6.68;;;9.30;99.90;;;;;;4982891;28;20412;-67
2023/05/03 07:50:43;;;;;;;8.77;6.40;;;9.30;99.90;;;;;;4984138;28;20069;-67
2023/05/03 07:53:10;;;;;;;11.60;6.53;;;9.30;99.90;;;;;;4987485;28;20161;-67
2023/05/03 07:55:36;;;;;;;10.32;6.20;;;9.40;99.90;;;;;;4986325;28;20053;-67
2023/05/03 07:58:03;;;;;;;6.32;5.72;;;9.40;99.90;;;;;;4992061;28;20137;-66
2023/05/03 08:00:30;;;;;;;6.80;5.60;;;9.30;99.90;;;;;;4981524;28;20049;-66
2023/05/03 08:02:56;;;;;;;14.20;5.53;;;9.20;99.90;;;;;;4988341;28;20047;-66
2023/05/03 08:05:22;;;;;;;12.93;6.80;;;9.10;99.90;;;;;;4986598;28;20137;-67
2023/05/03 08:07:48;;;;;;;7.00;6.15;;;9.10;99.90;;;;;;4989849;28;20046;-67
2023/05/03 08:10:14;;;;;;;8.52;6.25;;;9.00;99.90;;;;;;4988804;28;20517;-66
2023/05/03 08:12:40;;;;;;;5.55;4.80;;;9.00;99.90;;;;;;4987843;28;20038;-67
2023/05/03 08:15:07;;;;;;;13.90;5.90;;;9.00;99.90;;;;;;4984985;28;20046;-67
2023/05/03 08:17:42;;;;;;;9.18;6.43;;;9.00;99.90;;;;;;4989019;28;20128;-67
2023/05/03 08:20:09;;;;;;;6.82;5.63;;;9.10;99.90;;;;;;4987339;28;20060;-66
2023/05/03 08:22:39;;;;;;;11.55;7.18;;;9.10;99.90;;;;;;4988842;28;20423;-70
2023/05/03 08:25:05;;;;;;;11.40;6.00;;;9.10;99.90;;;;;;4990940;28;20066;-70
2023/05/03 08:27:32;;;;;;;7.20;5.60;;;9.10;99.90;;;;;;4991294;28;20050;-70
2023/05/03 08:29:59;;;;;;;9.68;6.45;;;9.20;99.90;;;;;;4992863;28;20050;-70
2023/05/03 08:32:25;;;;;;;9.32;4.82;;;9.20;99.90;;;;;;4989950;28;20054;-70
2023/05/03 08:34:51;;;;;;;6.55;5.80;;;9.20;99.90;;;;;;4991725;28;20056;-70
2023/05/03 08:37:17;;;;;;;7.30;6.50;;;9.30;99.90;;;;;;4987163;28;20053;-70
2023/05/03 08:39:43;;;;;;;7.93;5.65;;;9.20;99.00;;;;;;4987378;28;20042;-70
2023/05/03 08:42:08;;;;;;;8.30;5.90;;;9.20;99.40;;;;;;4991002;28;20424;-70
2023/05/03 08:44:43;;;;;;;9.40;6.05;;;9.20;99.00;;;;;;4990998;28;20451;-70
2023/05/03 08:47:09;;;;;;;6.72;5.10;;;9.30;98.30;;;;;;4990857;28;20046;-70
2023/05/03 08:49:36;;;;;;;6.82;4.85;;;9.40;98.90;;;;;;4988278;28;20403;-69
2023/05/03 08:52:05;;;;;;;6.15;5.30;;;9.40;98.80;;;;;;4989507;28;20141;-70
2023/05/03 08:54:30;;;;;;;9.07;6.55;;;9.50;99.40;;;;;;4981820;28;20076;-69
2023/05/03 08:56:56;;;;;;;6.85;5.60;;;9.60;99.90;;;;;;4989742;28;20506;-70
2023/05/03 08:59:23;;;;;;;17.15;7.07;;;9.70;99.10;;;;;;4987624;28;20046;-70
2023/05/03 09:01:49;;;;;;;7.28;4.63;;;9.70;98.20;;;;;;4989689;28;20062;-70
2023/05/03 09:04:16;;;;;;;6.63;5.90;;;9.70;95.80;;;;;;4988369;28;20184;-70
2023/05/03 09:06:41;;;;;;;6.72;5.18;;;9.60;95.40;;;;;;4989504;28;20050;-70
2023/05/03 09:09:07;;;;;;;5.70;5.10;;;9.70;95.40;;;;;;4990989;28;20050;-70
2023/05/03 09:11:33;;;;;;;9.52;5.85;;;9.70;96.20;;;;;;4989893;28;20045;-70
2023/05/03 09:14:09;;;;;;;6.30;5.80;;;9.80;96.30;;;;;;4989796;28;20419;-70
2023/05/03 09:16:35;;;;;;;7.40;6.63;;;9.90;96.10;;;;;;4985511;28;20091;-70
2023/05/03 09:19:10;;;;;;;10.40;6.80;;;9.90;95.20;;;;;;4981017;28;20104;-70
2023/05/03 09:21:36;;;;;;;6.25;5.60;;;10.00;93.60;;;;;;4990991;28;20092;-70
2023/05/03 09:24:14;;;;;;;6.30;5.70;;;10.00;93.20;;;;;;4991047;28;20050;-70
2023/05/03 09:26:41;;;;;;;11.70;6.20;;;10.10;91.80;;;;;;4989163;28;20046;-70
2023/05/03 09:29:07;;;;;;;6.22;5.38;;;10.10;92.80;;;;;;4988789;28;20057;-70
2023/05/03 09:31:34;;;;;;;8.68;5.72;;;10.30;92.90;;;;;;4990246;28;20042;-70
2023/05/03 09:34:01;;;;;;;5.70;5.20;;;10.40;92.00;;;;;;4986241;28;20054;-70
2023/05/03 09:36:26;;;;;;;8.20;5.78;;;10.50;91.70;;;;;;4988153;28;20073;-70
2023/05/03 09:38:53;;;;;;;26.33;6.63;;;10.70;91.10;;;;;;4990084;28;20507;-70
2023/05/03 09:41:27;;;;;;;5.57;4.97;;;10.80;90.40;;;;;;4989182;28;20050;-70
2023/05/03 09:43:54;;;;;;;7.43;5.25;;;10.90;87.20;;;;;;4968472;28;20105;-71
2023/05/03 09:46:23;;;;;;;7.18;5.65;;;10.90;88.80;;;;;;4988609;28;20057;-71
2023/05/03 09:48:49;;;;;;;7.75;4.88;;;11.00;87.50;;;;;;4990077;28;20057;-71
2023/05/03 09:51:15;;;;;;;6.65;5.28;;;11.20;85.60;;;;;;4989793;28;20053;-70
2023/05/03 09:53:41;;;;;;;6.97;5.63;;;11.10;84.00;;;;;;4986161;28;20034;-70
2023/05/03 09:56:13;;;;;;;5.53;4.80;;;11.10;84.30;;;;;;4987698;28;20415;-71
2023/05/03 09:58:40;;;;;;;6.82;4.72;;;11.10;85.90;;;;;;4983516;28;20097;-71
2023/05/03 10:01:06;;;;;;;4.90;4.40;;;11.00;85.90;;;;;;4988702;28;20729;-71
2023/05/03 10:03:43;;;;;;;6.93;5.20;;;11.00;84.90;;;;;;4989333;28;20126;-71
2023/05/03 10:06:29;;;;;;;6.03;5.45;;;10.90;82.20;;;;;;4987363;28;20547;-71
2023/05/03 10:09:09;;;;;;;9.68;6.68;;;10.90;87.00;;;;;;4979857;28;20069;-70
2023/05/03 10:11:35;;;;;;;9.43;5.88;;;11.20;87.80;;;;;;4998363;28;20419;-70
2023/05/03 10:14:03;;;;;;;6.38;5.55;;;11.40;84.20;;;;;;4987558;28;20046;-71
2023/05/03 10:16:32;;;;;;;7.15;5.55;;;11.70;83.10;;;;;;4985906;28;20050;-71
2023/05/03 10:19:10;;;;;;;7.85;5.65;;;12.00;82.20;;;;;;4987061;28;20046;-71
2023/05/03 10:21:55;;;;;;;7.17;5.50;;;12.20;79.30;;;;;;4983487;28;20053;-71
2023/05/03 10:24:21;;;;;;;13.32;5.93;;;12.30;79.30;;;;;;4978474;28;21008;-71
2023/05/03 10:26:49;;;;;;;6.15;5.32;;;12.20;79.30;;;;;;4987100;28;20100;-71
2023/05/03 10:29:33;;;;;;;5.80;5.22;;;12.20;79.10;;;;;;4986528;28;20487;-71
2023/05/03 10:32:26;;;;;;;6.15;5.65;;;11.90;79.20;;;;;;4978388;28;20092;-71
2023/05/03 10:35:16;;;;;;;8.27;6.70;;;11.90;79.40;;;;;;4970514;28;20100;-71
2023/05/03 10:37:42;;;;;;;11.32;5.95;;;11.80;79.10;;;;;;4975629;28;20046;-71
2023/05/03 10:40:13;;;;;;;10.00;5.53;;;11.80;80.00;;;;;;4988114;28;20042;-72
2023/05/03 10:42:48;;;;;;;6.53;5.85;;;11.70;78.90;;;;;;4988636;28;20113;-71
2023/05/03 10:45:23;;;;;;;5.38;4.95;;;11.80;78.40;;;;;;4988878;28;20061;-71
2023/05/03 10:48:12;;;;;;;7.95;5.70;;;11.90;78.40;;;;;;4984619;28;20515;-71
2023/05/03 10:50:41;;;;;;;6.80;5.60;;;11.90;78.10;;;;;;4987922;28;20054;-71
2023/05/03 10:53:07;;;;;;;11.48;5.10;;;12.00;76.90;;;;;;4988780;28;20050;-71
2023/05/03 10:55:32;;;;;;;12.13;6.90;;;11.80;76.10;;;;;;4988738;28;20173;-71
2023/05/03 10:57:59;;;;;;;7.88;6.70;;;11.70;76.10;;;;;;4988075;28;20160;-71
2023/05/03 11:00:43;;;;;;;11.90;5.65;;;11.70;77.20;;;;;;4988078;28;20470;-71
2023/05/03 11:03:30;;;;;;;8.30;6.15;;;12.00;77.10;;;;;;4988703;28;20042;-71
2023/05/03 11:05:56;;;;;;;10.13;6.07;;;12.10;74.80;;;;;;4987458;28;20042;-71
2023/05/03 11:08:24;;;;;;;7.93;7.22;;;12.20;74.70;;;;;;4987648;28;20057;-71
2023/05/03 11:10:58;;;;;;;7.70;6.35;;;12.30;75.40;;;;;;4976720;28;20051;-70
2023/05/03 11:13:24;;;;;;;8.85;5.97;;;12.30;72.70;;;;;;4985867;28;20042;-71
2023/05/03 11:15:53;;;;;;;8.18;6.40;;;12.40;73.20;;;;;;4987417;28;20415;-71
2023/05/03 11:18:19;;;;;;;7.97;6.15;;;12.40;72.00;;;;;;4988745;28;20062;-71
2023/05/03 11:20:45;;;;;;;7.97;6.40;;;12.40;73.00;;;;;;4987200;28;20093;-71
2023/05/03 11:23:11;;;;;;;13.35;6.72;;;12.60;72.40;;;;;;4988575;28;20569;-71
2023/05/03 11:25:37;;;;;;;8.25;6.85;;;12.70;72.10;;;;;;4988131;28;20057;-71
2023/05/03 11:28:03;;;;;;;8.25;6.60;;;12.80;72.00;;;;;;4988072;28;20050;-71
2023/05/03 11:30:32;;;;;;;7.78;6.28;;;13.00;72.00;;;;;;4987544;28;20435;-71
2023/05/03 11:32:59;;;;;;;20.05;7.68;;;13.40;76.00;;;;;;4986075;28;20096;-70
2023/05/03 11:35:27;;;;;;;6.40;5.80;;;13.90;73.30;;;;;;4987914;28;20053;-71
2023/05/03 11:37:53;;;;;;;7.97;6.85;;;14.10;71.30;;;;;;4988391;28;20066;-71
2023/05/03 11:40:19;;;;;;;7.57;5.75;;;14.30;71.10;;;;;;4984676;28;20097;-71
2023/05/03 11:42:52;;;;;;;8.15;6.53;;;14.20;69.40;;;;;;4988059;28;20102;-71
2023/05/03 11:45:23;;;;;;;11.10;7.50;;;14.40;68.80;;;;;;4988593;28;20046;-71
2023/05/03 11:47:50;;;;;;;9.63;6.47;;;14.20;68.70;;;;;;4988333;28;20451;-71
2023/05/03 11:50:17;;;;;;;9.43;7.28;;;14.10;68.40;;;;;;4987419;28;20081;-71
2023/05/03 11:52:44;;;;;;;8.30;7.05;;;13.90;67.70;;;;;;4988392;28;20759;-71
2023/05/03 11:55:12;;;;;;;7.80;5.75;;;13.60;67.00;;;;;;4987822;28;20046;-70
2023/05/03 11:57:38;;;;;;;;;;;13.50;69.40;;;;;;4985896;28;20514;-71
2023/05/03 12:00:16;;;;;;;7.15;5.65;;;13.70;70.10;;;;;;4994349;28;19922;-71
2023/05/03 12:02:42;;;;;;;;;;;14.00;72.80;;;;;;4992382;28;20046;-71
2023/05/03 12:05:08;;;;;;;8.85;6.28;;;14.40;73.20;;;;;;4989531;28;19922;-71
2023/05/03 12:07:37;;;;;;;8.30;6.43;;;14.60;69.50;;;;;;4990622;28;20043;-71
2023/05/03 12:10:19;;;;;;;7.35;6.53;;;14.80;68.10;;;;;;4991213;28;20080;-70
2023/05/03 12:12:58;;;;;;;10.38;6.90;;;14.50;65.40;;;;;;4987677;28;20050;-71
2023/05/03 12:15:31;;;;;;;7.78;6.85;;;14.00;65.10;;;;;;4991704;28;20042;-71
2023/05/03 12:18:07;;;;;;;14.27;7.40;;;13.70;67.00;;;;;;4991795;28;20043;-71
2023/05/03 12:20:35;;;;;;;8.73;6.70;;;13.70;67.40;;;;;;4991530;28;20503;-71
2023/05/03 12:23:03;;;;;;;12.38;7.45;;;13.70;68.40;;;;;;4991629;28;20054;-71
2023/05/03 12:25:30;;;;;;;9.75;6.85;;;13.70;68.40;;;;;;4983568;28;20046;-71
2023/05/03 12:27:57;;;;;;;10.48;7.22;;;13.90;70.00;;;;;;4988161;28;20042;-71
2023/05/03 12:30:24;;;;;;;6.85;6.22;;;14.00;67.80;;;;;;4991111;28;20100;-72
2023/05/03 12:32:49;;;;;;;7.93;6.97;;;13.90;67.70;;;;;;4990291;28;20121;-72
2023/05/03 12:35:17;;;;;;;8.98;6.10;;;14.00;68.60;;;;;;4987462;28;20145;-72
2023/05/03 12:37:43;;;;;;;7.68;6.78;;;14.20;69.10;;;;;;4985112;28;20555;-71
2023/05/03 12:40:09;;;;;;;14.18;6.60;;;14.30;67.50;;;;;;4988348;28;20125;-71
2023/05/03 12:42:35;;;;;;;7.95;6.78;;;14.40;67.30;;;;;;4986753;28;20514;-71
2023/05/03 12:45:00;;;;;;;10.05;6.85;;;14.40;65.40;;;;;;4989925;28;20046;-71
2023/05/03 12:47:26;;;;;;;8.77;7.07;;;14.30;64.50;;;;;;4985144;28;20449;-71
2023/05/03 12:49:53;;;;;;;12.65;6.70;;;14.40;66.10;;;;;;4991334;28;20042;-71
2023/05/03 12:52:20;;;;;;;9.70;7.15;;;14.40;65.10;;;;;;4990634;28;20035;-71